sensor_id;sensor_type;location;lat;lon;timestamp;temperature;humidity
76384;SHT30;65204;48.606;7.598;2023-08-24T00:00:17;27.47;54.42
76384;SHT30;65204;48.606;7.598;2023-08-24T00:00:48;27.45;54.43
76384;SHT30;65204;48.606;7.598;2023-08-24T00:01:18;27.45;54.44
76384;SHT30;65204;48.606;7.598;2023-08-24T00:01:48;27.45;54.44
76384;SHT30;65204;48.606;7.598;2023-08-24T00:02:19;27.43;54.50
76384;SHT30;65204;48.606;7.598;2023-08-24T00:02:49;27.45;54.48
76384;SHT30;65204;48.606;7.598;2023-08-24T00:03:19;27.46;54.52
76384;SHT30;65204;48.606;7.598;2023-08-24T00:03:51;27.43;54.52
76384;SHT30;65204;48.606;7.598;2023-08-24T00:04:22;27.42;54.58
76384;SHT30;65204;48.606;7.598;2023-08-24T00:04:52;27.40;54.54
76384;SHT30;65204;48.606;7.598;2023-08-24T00:05:23;27.42;54.58
76384;SHT30;65204;48.606;7.598;2023-08-24T00:05:54;27.40;54.56
76384;SHT30;65204;48.606;7.598;2023-08-24T00:06:24;27.42;54.55
76384;SHT30;65204;48.606;7.598;2023-08-24T00:06:54;27.40;54.62
76384;SHT30;65204;48.606;7.598;2023-08-24T00:07:25;27.42;54.57
76384;SHT30;65204;48.606;7.598;2023-08-24T00:07:55;27.42;54.53
76384;SHT30;65204;48.606;7.598;2023-08-24T00:08:26;27.42;54.56
76384;SHT30;65204;48.606;7.598;2023-08-24T00:08:57;27.40;54.56
76384;SHT30;65204;48.606;7.598;2023-08-24T00:09:27;27.40;54.52
76384;SHT30;65204;48.606;7.598;2023-08-24T00:09:58;27.42;54.52
76384;SHT30;65204;48.606;7.598;2023-08-24T00:10:28;27.40;54.49
76384;SHT30;65204;48.606;7.598;2023-08-24T00:10:58;27.40;54.51
76384;SHT30;65204;48.606;7.598;2023-08-24T00:11:29;27.39;54.52
76384;SHT30;65204;48.606;7.598;2023-08-24T00:11:59;27.40;54.50
76384;SHT30;65204;48.606;7.598;2023-08-24T00:12:29;27.39;54.45
76384;SHT30;65204;48.606;7.598;2023-08-24T00:13:00;27.40;54.50
76384;SHT30;65204;48.606;7.598;2023-08-24T00:13:30;27.37;54.55
76384;SHT30;65204;48.606;7.598;2023-08-24T00:14:01;27.40;54.53
76384;SHT30;65204;48.606;7.598;2023-08-24T00:14:32;27.37;54.55
76384;SHT30;65204;48.606;7.598;2023-08-24T00:15:03;27.37;54.56
76384;SHT30;65204;48.606;7.598;2023-08-24T00:15:34;27.37;54.57
76384;SHT30;65204;48.606;7.598;2023-08-24T00:16:05;27.35;54.59
76384;SHT30;65204;48.606;7.598;2023-08-24T00:16:36;27.36;54.61
76384;SHT30;65204;48.606;7.598;2023-08-24T00:17:07;27.37;54.62
76384;SHT30;65204;48.606;7.598;2023-08-24T00:17:38;27.36;54.65
76384;SHT30;65204;48.606;7.598;2023-08-24T00:18:09;27.30;54.65
76384;SHT30;65204;48.606;7.598;2023-08-24T00:18:39;27.32;54.65
76384;SHT30;65204;48.606;7.598;2023-08-24T00:19:09;27.30;54.69
76384;SHT30;65204;48.606;7.598;2023-08-24T00:19:40;27.32;54.72
76384;SHT30;65204;48.606;7.598;2023-08-24T00:20:10;27.32;54.72
76384;SHT30;65204;48.606;7.598;2023-08-24T00:20:41;27.26;54.73
76384;SHT30;65204;48.606;7.598;2023-08-24T00:21:15;27.29;54.73
76384;SHT30;65204;48.606;7.598;2023-08-24T00:21:52;27.27;54.80
76384;SHT30;65204;48.606;7.598;2023-08-24T00:22:23;27.26;54.85
76384;SHT30;65204;48.606;7.598;2023-08-24T00:22:53;27.23;54.85
76384;SHT30;65204;48.606;7.598;2023-08-24T00:23:25;27.23;54.90
76384;SHT30;65204;48.606;7.598;2023-08-24T00:23:55;27.22;54.93
76384;SHT30;65204;48.606;7.598;2023-08-24T00:24:26;27.25;54.89
76384;SHT30;65204;48.606;7.598;2023-08-24T00:24:56;27.22;54.95
76384;SHT30;65204;48.606;7.598;2023-08-24T00:25:27;27.17;54.98
76384;SHT30;65204;48.606;7.598;2023-08-24T00:25:57;27.19;54.98
76384;SHT30;65204;48.606;7.598;2023-08-24T00:26:28;27.17;54.98
76384;SHT30;65204;48.606;7.598;2023-08-24T00:26:58;27.16;55.07
76384;SHT30;65204;48.606;7.598;2023-08-24T00:27:29;27.09;55.07
76384;SHT30;65204;48.606;7.598;2023-08-24T00:28:00;27.10;55.09
76384;SHT30;65204;48.606;7.598;2023-08-24T00:28:30;27.10;55.10
76384;SHT30;65204;48.606;7.598;2023-08-24T00:29:00;27.12;55.15
76384;SHT30;65204;48.606;7.598;2023-08-24T00:29:31;27.09;55.19
76384;SHT30;65204;48.606;7.598;2023-08-24T00:30:06;27.07;55.18
76384;SHT30;65204;48.606;7.598;2023-08-24T00:30:37;27.09;55.20
76384;SHT30;65204;48.606;7.598;2023-08-24T00:31:07;27.06;55.19
76384;SHT30;65204;48.606;7.598;2023-08-24T00:31:37;27.06;55.18
76384;SHT30;65204;48.606;7.598;2023-08-24T00:32:08;27.07;55.24
76384;SHT30;65204;48.606;7.598;2023-08-24T00:32:38;27.07;55.25
76384;SHT30;65204;48.606;7.598;2023-08-24T00:33:08;27.06;55.26
76384;SHT30;65204;48.606;7.598;2023-08-24T00:33:39;27.05;55.27
76384;SHT30;65204;48.606;7.598;2023-08-24T00:34:09;27.05;55.25
76384;SHT30;65204;48.606;7.598;2023-08-24T00:34:40;27.03;55.29
76384;SHT30;65204;48.606;7.598;2023-08-24T00:35:11;27.02;55.29
76384;SHT30;65204;48.606;7.598;2023-08-24T00:35:41;27.00;55.29
76384;SHT30;65204;48.606;7.598;2023-08-24T00:36:12;27.03;55.33
76384;SHT30;65204;48.606;7.598;2023-08-24T00:36:42;27.00;55.32
76384;SHT30;65204;48.606;7.598;2023-08-24T00:37:13;26.98;55.35
76384;SHT30;65204;48.606;7.598;2023-08-24T00:37:43;26.98;55.36
76384;SHT30;65204;48.606;7.598;2023-08-24T00:38:14;26.96;55.39
76384;SHT30;65204;48.606;7.598;2023-08-24T00:38:44;26.96;55.43
76384;SHT30;65204;48.606;7.598;2023-08-24T00:39:15;26.99;55.47
76384;SHT30;65204;48.606;7.598;2023-08-24T00:39:46;26.96;55.47
76384;SHT30;65204;48.606;7.598;2023-08-24T00:40:17;26.95;55.56
76384;SHT30;65204;48.606;7.598;2023-08-24T00:40:48;26.98;55.47
76384;SHT30;65204;48.606;7.598;2023-08-24T00:41:19;26.98;55.52
76384;SHT30;65204;48.606;7.598;2023-08-24T00:41:51;26.94;55.47
76384;SHT30;65204;48.606;7.598;2023-08-24T00:42:21;26.94;55.45
76384;SHT30;65204;48.606;7.598;2023-08-24T00:42:52;26.95;55.45
76384;SHT30;65204;48.606;7.598;2023-08-24T00:43:23;26.98;55.45
76384;SHT30;65204;48.606;7.598;2023-08-24T00:43:54;26.95;55.47
76384;SHT30;65204;48.606;7.598;2023-08-24T00:44:25;26.95;55.50
76384;SHT30;65204;48.606;7.598;2023-08-24T00:44:55;26.95;55.49
76384;SHT30;65204;48.606;7.598;2023-08-24T00:45:26;26.96;55.42
76384;SHT30;65204;48.606;7.598;2023-08-24T00:45:59;26.94;55.48
76384;SHT30;65204;48.606;7.598;2023-08-24T00:46:30;26.94;55.50
76384;SHT30;65204;48.606;7.598;2023-08-24T00:47:01;26.95;55.60
76384;SHT30;65204;48.606;7.598;2023-08-24T00:47:32;26.94;55.55
76384;SHT30;65204;48.606;7.598;2023-08-24T00:48:03;26.91;55.63
76384;SHT30;65204;48.606;7.598;2023-08-24T00:48:33;26.89;55.61
76384;SHT30;65204;48.606;7.598;2023-08-24T00:49:04;26.91;55.62
76384;SHT30;65204;48.606;7.598;2023-08-24T00:49:35;26.91;55.67
76384;SHT30;65204;48.606;7.598;2023-08-24T00:50:09;26.91;55.71
76384;SHT30;65204;48.606;7.598;2023-08-24T00:50:40;26.89;55.72
76384;SHT30;65204;48.606;7.598;2023-08-24T00:51:10;26.88;55.76
76384;SHT30;65204;48.606;7.598;2023-08-24T00:51:41;26.86;55.76
76384;SHT30;65204;48.606;7.598;2023-08-24T00:52:11;26.85;55.77
76384;SHT30;65204;48.606;7.598;2023-08-24T00:52:42;26.82;55.79
76384;SHT30;65204;48.606;7.598;2023-08-24T00:53:13;26.84;55.82
76384;SHT30;65204;48.606;7.598;2023-08-24T00:53:43;26.85;55.87
76384;SHT30;65204;48.606;7.598;2023-08-24T00:54:15;26.86;55.85
76384;SHT30;65204;48.606;7.598;2023-08-24T00:54:46;26.84;55.81
76384;SHT30;65204;48.606;7.598;2023-08-24T00:55:17;26.86;55.83
76384;SHT30;65204;48.606;7.598;2023-08-24T00:55:47;26.84;55.87
76384;SHT30;65204;48.606;7.598;2023-08-24T00:56:18;26.84;55.85
76384;SHT30;65204;48.606;7.598;2023-08-24T00:56:54;26.81;55.95
76384;SHT30;65204;48.606;7.598;2023-08-24T00:57:26;26.81;55.95
76384;SHT30;65204;48.606;7.598;2023-08-24T00:57:57;26.76;56.00
76384;SHT30;65204;48.606;7.598;2023-08-24T00:58:29;26.78;56.02
76384;SHT30;65204;48.606;7.598;2023-08-24T00:59:01;26.76;56.02
76384;SHT30;65204;48.606;7.598;2023-08-24T00:59:33;26.76;56.03
76384;SHT30;65204;48.606;7.598;2023-08-24T01:00:05;26.76;56.07
76384;SHT30;65204;48.606;7.598;2023-08-24T01:00:38;26.75;56.12
76384;SHT30;65204;48.606;7.598;2023-08-24T01:01:08;26.74;56.16
76384;SHT30;65204;48.606;7.598;2023-08-24T01:01:39;26.75;56.21
76384;SHT30;65204;48.606;7.598;2023-08-24T01:02:11;26.74;56.21
76384;SHT30;65204;48.606;7.598;2023-08-24T01:02:42;26.72;56.17
76384;SHT30;65204;48.606;7.598;2023-08-24T01:03:12;26.71;56.18
76384;SHT30;65204;48.606;7.598;2023-08-24T01:03:43;26.71;56.27
76384;SHT30;65204;48.606;7.598;2023-08-24T01:04:21;26.71;56.25
76384;SHT30;65204;48.606;7.598;2023-08-24T01:04:53;26.69;56.28
76384;SHT30;65204;48.606;7.598;2023-08-24T01:05:23;26.69;56.31
76384;SHT30;65204;48.606;7.598;2023-08-24T01:05:53;26.71;56.30
76384;SHT30;65204;48.606;7.598;2023-08-24T01:06:24;26.68;56.37
76384;SHT30;65204;48.606;7.598;2023-08-24T01:06:55;26.68;56.34
76384;SHT30;65204;48.606;7.598;2023-08-24T01:07:26;26.69;56.33
76384;SHT30;65204;48.606;7.598;2023-08-24T01:07:56;26.67;56.33
76384;SHT30;65204;48.606;7.598;2023-08-24T01:08:27;26.67;56.35
76384;SHT30;65204;48.606;7.598;2023-08-24T01:08:57;26.69;56.35
76384;SHT30;65204;48.606;7.598;2023-08-24T01:09:28;26.65;56.37
76384;SHT30;65204;48.606;7.598;2023-08-24T01:09:58;26.65;56.41
76384;SHT30;65204;48.606;7.598;2023-08-24T01:10:38;26.64;56.38
76384;SHT30;65204;48.606;7.598;2023-08-24T01:11:20;26.64;56.40
76384;SHT30;65204;48.606;7.598;2023-08-24T01:13:00;26.61;56.48
76384;SHT30;65204;48.606;7.598;2023-08-24T01:13:48;26.55;56.66
76384;SHT30;65204;48.606;7.598;2023-08-24T01:14:26;26.55;56.63
76384;SHT30;65204;48.606;7.598;2023-08-24T01:15:18;26.52;56.75
76384;SHT30;65204;48.606;7.598;2023-08-24T01:15:57;26.49;56.82
76384;SHT30;65204;48.606;7.598;2023-08-24T01:16:31;26.51;56.83
76384;SHT30;65204;48.606;7.598;2023-08-24T01:17:03;26.52;56.80
76384;SHT30;65204;48.606;7.598;2023-08-24T01:17:35;26.51;56.85
76384;SHT30;65204;48.606;7.598;2023-08-24T01:18:14;26.49;56.87
76384;SHT30;65204;48.606;7.598;2023-08-24T01:18:46;26.49;56.88
76384;SHT30;65204;48.606;7.598;2023-08-24T01:19:58;26.48;56.95
76384;SHT30;65204;48.606;7.598;2023-08-24T01:20:29;26.48;56.98
76384;SHT30;65204;48.606;7.598;2023-08-24T01:21:02;26.49;56.97
76384;SHT30;65204;48.606;7.598;2023-08-24T01:21:32;26.52;56.95
76384;SHT30;65204;48.606;7.598;2023-08-24T01:22:07;26.51;56.95
76384;SHT30;65204;48.606;7.598;2023-08-24T01:23:18;26.52;57.02
76384;SHT30;65204;48.606;7.598;2023-08-24T01:24:01;26.51;57.07
76384;SHT30;65204;48.606;7.598;2023-08-24T01:24:40;26.49;57.02
76384;SHT30;65204;48.606;7.598;2023-08-24T01:25:29;26.48;57.07
76384;SHT30;65204;48.606;7.598;2023-08-24T01:26:19;26.47;57.21
76384;SHT30;65204;48.606;7.598;2023-08-24T01:26:51;26.44;57.17
76384;SHT30;65204;48.606;7.598;2023-08-24T01:27:24;26.44;57.16
76384;SHT30;65204;48.606;7.598;2023-08-24T01:27:56;26.44;57.17
76384;SHT30;65204;48.606;7.598;2023-08-24T01:28:27;26.44;57.16
76384;SHT30;65204;48.606;7.598;2023-08-24T01:28:58;26.45;57.13
76384;SHT30;65204;48.606;7.598;2023-08-24T01:29:29;26.45;57.15
76384;SHT30;65204;48.606;7.598;2023-08-24T01:29:59;26.45;57.18
76384;SHT30;65204;48.606;7.598;2023-08-24T01:30:30;26.43;57.27
76384;SHT30;65204;48.606;7.598;2023-08-24T01:31:04;26.38;57.26
76384;SHT30;65204;48.606;7.598;2023-08-24T01:31:35;26.40;57.29
76384;SHT30;65204;48.606;7.598;2023-08-24T01:32:09;26.41;57.22
76384;SHT30;65204;48.606;7.598;2023-08-24T01:32:41;26.41;57.26
76384;SHT30;65204;48.606;7.598;2023-08-24T01:33:11;26.44;57.26
76384;SHT30;65204;48.606;7.598;2023-08-24T01:33:45;26.44;57.19
76384;SHT30;65204;48.606;7.598;2023-08-24T01:34:16;26.43;57.15
76384;SHT30;65204;48.606;7.598;2023-08-24T01:34:46;26.44;57.19
76384;SHT30;65204;48.606;7.598;2023-08-24T01:35:17;26.43;57.23
76384;SHT30;65204;48.606;7.598;2023-08-24T01:35:47;26.43;57.21
76384;SHT30;65204;48.606;7.598;2023-08-24T01:36:17;26.45;57.19
76384;SHT30;65204;48.606;7.598;2023-08-24T01:36:48;26.44;57.16
76384;SHT30;65204;48.606;7.598;2023-08-24T01:37:19;26.44;57.18
76384;SHT30;65204;48.606;7.598;2023-08-24T01:37:49;26.44;57.26
76384;SHT30;65204;48.606;7.598;2023-08-24T01:38:19;26.38;57.25
76384;SHT30;65204;48.606;7.598;2023-08-24T01:38:59;26.40;57.24
76384;SHT30;65204;48.606;7.598;2023-08-24T01:39:46;26.35;57.33
76384;SHT30;65204;48.606;7.598;2023-08-24T01:41:26;26.33;57.50
76384;SHT30;65204;48.606;7.598;2023-08-24T01:42:00;26.35;57.49
76384;SHT30;65204;48.606;7.598;2023-08-24T01:42:33;26.35;57.50
76384;SHT30;65204;48.606;7.598;2023-08-24T01:43:07;26.37;57.47
76384;SHT30;65204;48.606;7.598;2023-08-24T01:43:39;26.35;57.46
76384;SHT30;65204;48.606;7.598;2023-08-24T01:44:13;26.37;57.48
76384;SHT30;65204;48.606;7.598;2023-08-24T01:44:50;26.38;57.47
76384;SHT30;65204;48.606;7.598;2023-08-24T01:45:24;26.35;57.54
76384;SHT30;65204;48.606;7.598;2023-08-24T01:45:58;26.37;57.50
76384;SHT30;65204;48.606;7.598;2023-08-24T01:46:29;26.38;57.50
76384;SHT30;65204;48.606;7.598;2023-08-24T01:47:03;26.40;57.45
76384;SHT30;65204;48.606;7.598;2023-08-24T01:47:36;26.40;57.47
76384;SHT30;65204;48.606;7.598;2023-08-24T01:48:09;26.40;57.47
76384;SHT30;65204;48.606;7.598;2023-08-24T01:48:39;26.41;57.49
76384;SHT30;65204;48.606;7.598;2023-08-24T01:49:12;26.43;57.42
76384;SHT30;65204;48.606;7.598;2023-08-24T01:49:44;26.44;57.40
76384;SHT30;65204;48.606;7.598;2023-08-24T01:50:14;26.44;57.42
76384;SHT30;65204;48.606;7.598;2023-08-24T01:50:46;26.44;57.42
76384;SHT30;65204;48.606;7.598;2023-08-24T01:51:17;26.41;57.47
76384;SHT30;65204;48.606;7.598;2023-08-24T01:51:48;26.44;57.50
76384;SHT30;65204;48.606;7.598;2023-08-24T01:52:19;26.41;57.49
76384;SHT30;65204;48.606;7.598;2023-08-24T01:52:51;26.43;57.53
76384;SHT30;65204;48.606;7.598;2023-08-24T01:53:21;26.41;57.54
76384;SHT30;65204;48.606;7.598;2023-08-24T01:53:52;26.40;57.60
76384;SHT30;65204;48.606;7.598;2023-08-24T01:54:23;26.43;57.54
76384;SHT30;65204;48.606;7.598;2023-08-24T01:54:53;26.43;57.55
76384;SHT30;65204;48.606;7.598;2023-08-24T01:55:24;26.44;57.51
76384;SHT30;65204;48.606;7.598;2023-08-24T01:55:54;26.45;57.51
76384;SHT30;65204;48.606;7.598;2023-08-24T01:56:25;26.48;57.46
76384;SHT30;65204;48.606;7.598;2023-08-24T01:56:55;26.48;57.41
76384;SHT30;65204;48.606;7.598;2023-08-24T01:57:25;26.45;57.41
76384;SHT30;65204;48.606;7.598;2023-08-24T01:57:56;26.48;57.47
76384;SHT30;65204;48.606;7.598;2023-08-24T01:58:27;26.51;57.44
76384;SHT30;65204;48.606;7.598;2023-08-24T01:58:57;26.49;57.39
76384;SHT30;65204;48.606;7.598;2023-08-24T01:59:28;26.54;57.39
76384;SHT30;65204;48.606;7.598;2023-08-24T01:59:58;26.54;57.41
76384;SHT30;65204;48.606;7.598;2023-08-24T02:00:28;26.51;57.42
76384;SHT30;65204;48.606;7.598;2023-08-24T02:00:59;26.49;57.43
76384;SHT30;65204;48.606;7.598;2023-08-24T02:01:29;26.52;57.43
76384;SHT30;65204;48.606;7.598;2023-08-24T02:01:59;26.49;57.44
76384;SHT30;65204;48.606;7.598;2023-08-24T02:02:30;26.51;57.40
76384;SHT30;65204;48.606;7.598;2023-08-24T02:03:00;26.54;57.40
76384;SHT30;65204;48.606;7.598;2023-08-24T02:03:30;26.54;57.41
76384;SHT30;65204;48.606;7.598;2023-08-24T02:04:01;26.54;57.39
76384;SHT30;65204;48.606;7.598;2023-08-24T02:04:31;26.55;57.37
76384;SHT30;65204;48.606;7.598;2023-08-24T02:05:02;26.55;57.31
76384;SHT30;65204;48.606;7.598;2023-08-24T02:05:33;26.55;57.31
76384;SHT30;65204;48.606;7.598;2023-08-24T02:06:03;26.56;57.28
76384;SHT30;65204;48.606;7.598;2023-08-24T02:06:35;26.56;57.20
76384;SHT30;65204;48.606;7.598;2023-08-24T02:07:05;26.58;57.20
76384;SHT30;65204;48.606;7.598;2023-08-24T02:07:35;26.59;57.22
76384;SHT30;65204;48.606;7.598;2023-08-24T02:08:06;26.58;57.22
76384;SHT30;65204;48.606;7.598;2023-08-24T02:08:36;26.58;57.18
76384;SHT30;65204;48.606;7.598;2023-08-24T02:09:06;26.61;57.19
76384;SHT30;65204;48.606;7.598;2023-08-24T02:09:37;26.59;57.17
76384;SHT30;65204;48.606;7.598;2023-08-24T02:10:07;26.61;57.13
76384;SHT30;65204;48.606;7.598;2023-08-24T02:10:38;26.59;57.17
76384;SHT30;65204;48.606;7.598;2023-08-24T02:11:08;26.59;57.12
76384;SHT30;65204;48.606;7.598;2023-08-24T02:11:38;26.61;57.14
76384;SHT30;65204;48.606;7.598;2023-08-24T02:12:09;26.59;57.15
76384;SHT30;65204;48.606;7.598;2023-08-24T02:12:39;26.61;57.13
76384;SHT30;65204;48.606;7.598;2023-08-24T02:13:09;26.61;57.14
76384;SHT30;65204;48.606;7.598;2023-08-24T02:13:40;26.62;57.14
76384;SHT30;65204;48.606;7.598;2023-08-24T02:14:10;26.59;57.13
76384;SHT30;65204;48.606;7.598;2023-08-24T02:14:40;26.62;57.13
76384;SHT30;65204;48.606;7.598;2023-08-24T02:15:11;26.62;57.14
76384;SHT30;65204;48.606;7.598;2023-08-24T02:15:41;26.61;57.08
76384;SHT30;65204;48.606;7.598;2023-08-24T02:16:11;26.64;57.06
76384;SHT30;65204;48.606;7.598;2023-08-24T02:16:44;26.64;57.09
76384;SHT30;65204;48.606;7.598;2023-08-24T02:17:15;26.64;57.02
76384;SHT30;65204;48.606;7.598;2023-08-24T02:17:46;26.64;57.06
76384;SHT30;65204;48.606;7.598;2023-08-24T02:18:16;26.62;57.01
76384;SHT30;65204;48.606;7.598;2023-08-24T02:18:46;26.64;57.00
76384;SHT30;65204;48.606;7.598;2023-08-24T02:19:17;26.67;56.97
76384;SHT30;65204;48.606;7.598;2023-08-24T02:19:47;26.65;56.97
76384;SHT30;65204;48.606;7.598;2023-08-24T02:20:17;26.64;56.97
76384;SHT30;65204;48.606;7.598;2023-08-24T02:20:48;26.67;56.98
76384;SHT30;65204;48.606;7.598;2023-08-24T02:21:18;26.64;56.93
76384;SHT30;65204;48.606;7.598;2023-08-24T02:21:48;26.64;56.93
76384;SHT30;65204;48.606;7.598;2023-08-24T02:22:19;26.65;56.91
76384;SHT30;65204;48.606;7.598;2023-08-24T02:22:49;26.68;56.89
76384;SHT30;65204;48.606;7.598;2023-08-24T02:23:19;26.67;56.82
76384;SHT30;65204;48.606;7.598;2023-08-24T02:23:49;26.69;56.76
76384;SHT30;65204;48.606;7.598;2023-08-24T02:24:20;26.71;56.79
76384;SHT30;65204;48.606;7.598;2023-08-24T02:24:50;26.71;56.77
76384;SHT30;65204;48.606;7.598;2023-08-24T02:25:21;26.72;56.71
76384;SHT30;65204;48.606;7.598;2023-08-24T02:25:51;26.71;56.69
76384;SHT30;65204;48.606;7.598;2023-08-24T02:26:22;26.71;56.66
76384;SHT30;65204;48.606;7.598;2023-08-24T02:26:52;26.74;56.62
76384;SHT30;65204;48.606;7.598;2023-08-24T02:27:22;26.74;56.53
76384;SHT30;65204;48.606;7.598;2023-08-24T02:27:53;26.74;56.53
76384;SHT30;65204;48.606;7.598;2023-08-24T02:28:23;26.72;56.54
76384;SHT30;65204;48.606;7.598;2023-08-24T02:28:54;26.74;56.54
76384;SHT30;65204;48.606;7.598;2023-08-24T02:29:24;26.75;56.53
76384;SHT30;65204;48.606;7.598;2023-08-24T02:29:55;26.76;56.49
76384;SHT30;65204;48.606;7.598;2023-08-24T02:30:25;26.76;56.46
76384;SHT30;65204;48.606;7.598;2023-08-24T02:31:00;26.76;56.40
76384;SHT30;65204;48.606;7.598;2023-08-24T02:31:31;26.75;56.43
76384;SHT30;65204;48.606;7.598;2023-08-24T02:32:02;26.78;56.41
76384;SHT30;65204;48.606;7.598;2023-08-24T02:32:32;26.74;56.43
76384;SHT30;65204;48.606;7.598;2023-08-24T02:33:03;26.76;56.44
76384;SHT30;65204;48.606;7.598;2023-08-24T02:33:35;26.76;56.45
76384;SHT30;65204;48.606;7.598;2023-08-24T02:34:06;26.75;56.37
76384;SHT30;65204;48.606;7.598;2023-08-24T02:34:36;26.76;56.33
76384;SHT30;65204;48.606;7.598;2023-08-24T02:35:07;26.76;56.34
76384;SHT30;65204;48.606;7.598;2023-08-24T02:35:38;26.78;56.36
76384;SHT30;65204;48.606;7.598;2023-08-24T02:36:08;26.78;56.27
76384;SHT30;65204;48.606;7.598;2023-08-24T02:36:38;26.78;56.28
76384;SHT30;65204;48.606;7.598;2023-08-24T02:37:09;26.78;56.28
76384;SHT30;65204;48.606;7.598;2023-08-24T02:37:39;26.78;56.22
76384;SHT30;65204;48.606;7.598;2023-08-24T02:38:10;26.78;56.25
76384;SHT30;65204;48.606;7.598;2023-08-24T02:38:40;26.76;56.23
76384;SHT30;65204;48.606;7.598;2023-08-24T02:39:10;26.76;56.20
76384;SHT30;65204;48.606;7.598;2023-08-24T02:39:41;26.74;56.23
76384;SHT30;65204;48.606;7.598;2023-08-24T02:40:11;26.75;56.20
76384;SHT30;65204;48.606;7.598;2023-08-24T02:40:41;26.72;56.20
76384;SHT30;65204;48.606;7.598;2023-08-24T02:41:12;26.74;56.15
76384;SHT30;65204;48.606;7.598;2023-08-24T02:41:44;26.75;56.16
76384;SHT30;65204;48.606;7.598;2023-08-24T02:42:14;26.74;56.20
76384;SHT30;65204;48.606;7.598;2023-08-24T02:42:45;26.74;56.20
76384;SHT30;65204;48.606;7.598;2023-08-24T02:43:15;26.74;56.22
76384;SHT30;65204;48.606;7.598;2023-08-24T02:43:45;26.74;56.22
76384;SHT30;65204;48.606;7.598;2023-08-24T02:44:16;26.75;56.18
76384;SHT30;65204;48.606;7.598;2023-08-24T02:44:46;26.74;56.19
76384;SHT30;65204;48.606;7.598;2023-08-24T02:45:16;26.72;56.20
76384;SHT30;65204;48.606;7.598;2023-08-24T02:45:46;26.72;56.22
76384;SHT30;65204;48.606;7.598;2023-08-24T02:46:17;26.74;56.29
76384;SHT30;65204;48.606;7.598;2023-08-24T02:46:49;26.69;56.30
76384;SHT30;65204;48.606;7.598;2023-08-24T02:47:19;26.75;56.24
76384;SHT30;65204;48.606;7.598;2023-08-24T02:47:50;26.74;56.31
76384;SHT30;65204;48.606;7.598;2023-08-24T02:48:20;26.76;56.25
76384;SHT30;65204;48.606;7.598;2023-08-24T02:48:50;26.76;56.25
76384;SHT30;65204;48.606;7.598;2023-08-24T02:49:21;26.76;56.24
76384;SHT30;65204;48.606;7.598;2023-08-24T02:49:51;26.75;56.23
76384;SHT30;65204;48.606;7.598;2023-08-24T02:50:22;26.74;56.27
76384;SHT30;65204;48.606;7.598;2023-08-24T02:50:52;26.76;56.31
76384;SHT30;65204;48.606;7.598;2023-08-24T02:51:23;26.75;56.30
76384;SHT30;65204;48.606;7.598;2023-08-24T02:51:54;26.75;56.30
76384;SHT30;65204;48.606;7.598;2023-08-24T02:52:24;26.72;56.31
76384;SHT30;65204;48.606;7.598;2023-08-24T02:52:54;26.71;56.34
76384;SHT30;65204;48.606;7.598;2023-08-24T02:53:25;26.69;56.37
76384;SHT30;65204;48.606;7.598;2023-08-24T02:53:57;26.68;56.39
76384;SHT30;65204;48.606;7.598;2023-08-24T02:54:27;26.69;56.37
76384;SHT30;65204;48.606;7.598;2023-08-24T02:54:58;26.68;56.35
76384;SHT30;65204;48.606;7.598;2023-08-24T02:55:32;26.67;56.44
76384;SHT30;65204;48.606;7.598;2023-08-24T02:56:03;26.67;56.43
76384;SHT30;65204;48.606;7.598;2023-08-24T02:56:33;26.65;56.40
76384;SHT30;65204;48.606;7.598;2023-08-24T02:57:03;26.64;56.44
76384;SHT30;65204;48.606;7.598;2023-08-24T02:57:34;26.64;56.48
76384;SHT30;65204;48.606;7.598;2023-08-24T02:58:05;26.64;56.43
76384;SHT30;65204;48.606;7.598;2023-08-24T02:58:35;26.64;56.48
76384;SHT30;65204;48.606;7.598;2023-08-24T02:59:06;26.64;56.45
76384;SHT30;65204;48.606;7.598;2023-08-24T02:59:36;26.64;56.53
76384;SHT30;65204;48.606;7.598;2023-08-24T03:00:07;26.64;56.53
76384;SHT30;65204;48.606;7.598;2023-08-24T03:00:39;26.65;56.58
76384;SHT30;65204;48.606;7.598;2023-08-24T03:01:10;26.62;56.59
76384;SHT30;65204;48.606;7.598;2023-08-24T03:01:40;26.64;56.59
76384;SHT30;65204;48.606;7.598;2023-08-24T03:02:11;26.64;56.59
76384;SHT30;65204;48.606;7.598;2023-08-24T03:02:41;26.62;56.63
76384;SHT30;65204;48.606;7.598;2023-08-24T03:03:13;26.62;56.58
76384;SHT30;65204;48.606;7.598;2023-08-24T03:03:44;26.64;56.66
76384;SHT30;65204;48.606;7.598;2023-08-24T03:04:15;26.62;56.65
76384;SHT30;65204;48.606;7.598;2023-08-24T03:04:45;26.64;56.63
76384;SHT30;65204;48.606;7.598;2023-08-24T03:05:15;26.59;56.64
76384;SHT30;65204;48.606;7.598;2023-08-24T03:06:02;26.59;56.65
76384;SHT30;65204;48.606;7.598;2023-08-24T03:06:33;26.58;56.73
76384;SHT30;65204;48.606;7.598;2023-08-24T03:07:03;26.56;56.73
76384;SHT30;65204;48.606;7.598;2023-08-24T03:07:37;26.55;56.74
76384;SHT30;65204;48.606;7.598;2023-08-24T03:08:07;26.55;56.73
76384;SHT30;65204;48.606;7.598;2023-08-24T03:08:38;26.56;56.78
76384;SHT30;65204;48.606;7.598;2023-08-24T03:09:08;26.56;56.77
76384;SHT30;65204;48.606;7.598;2023-08-24T03:09:38;26.54;56.80
76384;SHT30;65204;48.606;7.598;2023-08-24T03:10:09;26.55;56.78
76384;SHT30;65204;48.606;7.598;2023-08-24T03:10:39;26.55;56.82
76384;SHT30;65204;48.606;7.598;2023-08-24T03:11:10;26.55;56.77
76384;SHT30;65204;48.606;7.598;2023-08-24T03:11:40;26.56;56.78
76384;SHT30;65204;48.606;7.598;2023-08-24T03:12:11;26.52;56.82
76384;SHT30;65204;48.606;7.598;2023-08-24T03:12:42;26.54;56.80
76384;SHT30;65204;48.606;7.598;2023-08-24T03:13:13;26.54;56.78
76384;SHT30;65204;48.606;7.598;2023-08-24T03:13:44;26.54;56.80
76384;SHT30;65204;48.606;7.598;2023-08-24T03:14:14;26.51;56.80
76384;SHT30;65204;48.606;7.598;2023-08-24T03:14:44;26.54;56.80
76384;SHT30;65204;48.606;7.598;2023-08-24T03:15:15;26.49;56.83
76384;SHT30;65204;48.606;7.598;2023-08-24T03:15:45;26.51;56.88
76384;SHT30;65204;48.606;7.598;2023-08-24T03:16:15;26.47;56.93
76384;SHT30;65204;48.606;7.598;2023-08-24T03:16:45;26.45;56.90
76384;SHT30;65204;48.606;7.598;2023-08-24T03:17:16;26.43;56.93
76384;SHT30;65204;48.606;7.598;2023-08-24T03:17:47;26.45;56.94
76384;SHT30;65204;48.606;7.598;2023-08-24T03:18:18;26.45;56.97
76384;SHT30;65204;48.606;7.598;2023-08-24T03:18:48;26.44;56.97
76384;SHT30;65204;48.606;7.598;2023-08-24T03:19:19;26.44;56.97
76384;SHT30;65204;48.606;7.598;2023-08-24T03:19:50;26.47;56.93
76384;SHT30;65204;48.606;7.598;2023-08-24T03:20:20;26.44;56.95
76384;SHT30;65204;48.606;7.598;2023-08-24T03:20:50;26.45;56.95
76384;SHT30;65204;48.606;7.598;2023-08-24T03:21:21;26.47;56.93
76384;SHT30;65204;48.606;7.598;2023-08-24T03:21:51;26.45;56.97